Time;durP1;ratioP1;P1;durP2;ratioP2;P2;SDS_P1;SDS_P2;PMS_P1;PMS_P2;Temp;Humidity;BMP_temperature;BMP_pressure;BME280_temperature;BME280_humidity;BME280_pressure;Samples;Min_cycle;Max_cycle;Signal;HPM_P1;HPM_P2
2022/08/30 05:15:23;;;;;;;9.93;4.63;;;13.30;99.90;;;;;;6189690;23;20032;-95
2022/08/30 05:17:52;;;;;;;7.35;4.53;;;13.20;99.90;;;;;;6170158;23;20039;-96
2022/08/30 05:20:20;;;;;;;7.45;4.20;;;13.20;99.90;;;;;;6171034;23;20017;-96
2022/08/30 05:26:32;;;;;;;8.93;4.47;;;13.30;99.90;;;;;;6200507;23;20055;-95
2022/08/30 05:28:59;;;;;;;8.10;3.60;;;13.30;99.90;;;;;;6193379;23;20075;-95
2022/08/30 05:31:33;;;;;;;9.50;4.25;;;13.30;99.90;;;;;;6197254;23;20018;-96
2022/08/30 05:34:00;;;;;;;10.68;4.10;;;13.10;99.90;;;;;;6174338;22;20054;-96
2022/08/30 05:36:28;;;;;;;5.95;3.90;;;13.20;99.90;;;;;;6197520;23;20028;-95
2022/08/30 05:38:55;;;;;;;7.10;4.10;;;13.20;99.90;;;;;;6167543;23;20307;-95
2022/08/30 05:41:23;;;;;;;6.38;3.60;;;13.10;99.90;;;;;;6193801;23;20098;-96
2022/08/30 05:43:55;;;;;;;8.35;4.07;;;13.30;99.90;;;;;;6169492;23;20045;-95
2022/08/30 05:46:27;;;;;;;6.70;3.72;;;13.30;99.90;;;;;;6166006;23;20025;-96
2022/08/30 05:48:55;;;;;;;5.50;3.70;;;13.30;99.90;;;;;;6172538;22;20064;-95
2022/08/30 05:51:37;;;;;;;8.50;3.83;;;13.20;99.90;;;;;;6196969;22;20017;-95
2022/08/30 05:54:09;;;;;;;6.53;3.80;;;13.30;99.90;;;;;;6191235;23;20053;-95
2022/08/30 05:56:37;;;;;;;7.10;3.80;;;13.60;99.90;;;;;;6165910;22;20051;-96
2022/08/30 05:59:05;;;;;;;6.38;3.40;;;13.00;99.90;;;;;;6189275;22;20222;-96
2022/08/30 06:01:34;;;;;;;8.57;3.90;;;13.30;99.90;;;;;;6188407;22;20013;-93
2022/08/30 06:04:02;;;;;;;7.18;3.80;;;13.30;99.90;;;;;;6185955;23;20021;-95
2022/08/30 06:06:38;;;;;;;8.32;3.95;;;13.40;99.90;;;;;;6162840;22;20021;-96
2022/08/30 06:09:18;;;;;;;6.60;3.80;;;13.40;99.90;;;;;;6168738;22;20028;-95
2022/08/30 06:11:47;;;;;;;6.80;3.78;;;13.40;99.90;;;;;;6194607;22;20025;-95
2022/08/30 06:14:13;;;;;;;5.53;3.65;;;14.00;99.90;;;;;;6244446;22;20015;-92
2022/08/30 06:16:44;;;;;;;6.68;3.67;;;13.40;99.90;;;;;;6262442;22;20033;-96
2022/08/30 06:19:23;;;;;;;7.10;3.45;;;14.20;99.90;;;;;;6263452;22;20015;-95
2022/08/30 06:22:07;;;;;;;8.40;3.38;;;13.50;99.90;;;;;;6266107;22;20029;-96
2022/08/30 06:24:38;;;;;;;6.07;2.90;;;13.50;99.90;;;;;;6268315;22;20017;-96
2022/08/30 06:27:35;;;;;;;7.97;3.53;;;13.50;99.90;;;;;;6287379;22;20097;-96
2022/08/30 06:30:09;;;;;;;7.35;3.65;;;13.60;99.90;;;;;;6261334;22;20450;-96
2022/08/30 06:32:36;;;;;;;;;;;13.60;99.90;;;;;;6263680;22;20019;-95
2022/08/30 06:35:06;;;;;;;7.65;3.80;;;13.70;99.90;;;;;;6288389;22;19915;-96
2022/08/30 06:37:41;;;;;;;8.00;3.38;;;13.50;99.90;;;;;;6286916;22;20093;-96
2022/08/30 06:40:10;;;;;;;11.68;3.70;;;13.80;99.90;;;;;;6259715;22;20144;-95
2022/08/30 06:42:44;;;;;;;7.25;3.22;;;13.80;99.90;;;;;;6285935;22;20019;-95
2022/08/30 06:45:10;;;;;;;6.63;3.22;;;13.80;99.90;;;;;;6285586;22;20076;-94
2022/08/30 06:47:36;;;;;;;8.20;3.50;;;13.90;99.90;;;;;;6257939;22;20019;-96
2022/08/30 06:50:03;;;;;;;6.50;3.67;;;13.90;99.90;;;;;;6285089;22;20325;-94
2022/08/30 06:52:53;;;;;;;6.78;3.17;;;14.00;99.90;;;;;;6257901;22;20015;-95
2022/08/30 06:55:34;;;;;;;8.32;3.30;;;14.10;99.90;;;;;;6285568;22;20030;-95
2022/08/30 06:58:01;;;;;;;8.30;3.03;;;14.10;99.90;;;;;;6283313;22;20124;-94
2022/08/30 07:00:29;;;;;;;6.70;2.78;;;14.30;99.90;;;;;;6283314;22;20469;-94
2022/08/30 07:02:56;;;;;;;4.45;2.45;;;14.20;99.90;;;;;;6257720;22;20019;-95
2022/08/30 07:05:29;;;;;;;7.93;3.20;;;14.30;99.90;;;;;;6258158;22;20019;-94
2022/08/30 07:08:10;;;;;;;7.63;3.00;;;15.00;99.90;;;;;;6257494;22;20440;-94
2022/08/30 07:10:40;;;;;;;10.40;3.60;;;14.40;99.90;;;;;;6256932;22;20026;-94
2022/08/30 07:13:08;;;;;;;6.20;2.20;;;14.50;99.90;;;;;;6257446;22;20104;-93
2022/08/30 07:15:35;;;;;;;5.88;3.20;;;15.40;99.90;;;;;;6158445;23;20051;-94
2022/08/30 07:20:49;;;;;;;6.40;2.50;;;14.70;99.90;;;;;;6182321;23;20025;-95
2022/08/30 07:23:14;;;;;;;5.47;2.20;;;14.90;99.90;;;;;;6157396;23;20395;-93
2022/08/30 07:26:17;;;;;;;5.72;2.40;;;15.00;99.90;;;;;;6182207;23;20382;-95
2022/08/30 07:28:44;;;;;;;5.25;1.63;;;15.10;99.90;;;;;;6161582;23;20376;-96
2022/08/30 07:31:45;;;;;;;9.50;1.77;;;15.20;99.90;;;;;;6182318;23;20429;-86
2022/08/30 07:34:31;;;;;;;8.80;1.30;;;15.30;99.90;;;;;;6182770;22;20021;-93
2022/08/30 07:37:22;;;;;;;4.28;1.50;;;15.40;99.90;;;;;;6030773;23;20022;-85
2022/08/30 07:39:49;;;;;;;5.00;1.45;;;15.50;99.90;;;;;;6128988;23;20432;-96
2022/08/30 07:42:15;;;;;;;3.25;1.08;;;15.50;99.90;;;;;;6157974;23;20016;-92
2022/08/30 07:44:42;;;;;;;5.20;1.42;;;16.70;99.90;;;;;;6153833;23;20092;-86
2022/08/30 07:47:08;;;;;;;3.38;1.20;;;15.60;99.90;;;;;;6128268;23;20104;-88
2022/08/30 07:52:09;;;;;;;4.53;1.10;;;15.80;99.90;;;;;;6115270;22;20018;-87
2022/08/30 07:54:35;;;;;;;3.58;1.20;;;15.10;99.90;;;;;;6148514;23;20518;-88
2022/08/30 07:57:00;;;;;;;4.38;0.90;;;15.90;99.90;;;;;;6125085;23;20024;-87
2022/08/30 07:59:26;;;;;;;3.30;0.93;;;16.80;99.90;;;;;;6124689;23;20032;-87
2022/08/30 08:01:55;;;;;;;3.65;0.88;;;16.00;99.90;;;;;;6147935;22;20025;-84
2022/08/30 08:04:23;;;;;;;4.20;1.00;;;16.10;99.90;;;;;;6146615;23;20683;-82
2022/08/30 08:06:49;;;;;;;3.03;0.70;;;16.20;99.90;;;;;;6120717;23;20021;-84
2022/08/30 08:09:15;;;;;;;2.35;0.82;;;16.20;99.90;;;;;;6097705;23;20021;-85
2022/08/30 08:11:41;;;;;;;2.85;0.90;;;16.30;99.90;;;;;;6122317;23;20112;-86
2022/08/30 08:14:07;;;;;;;4.25;0.98;;;16.40;99.90;;;;;;6098445;23;20040;-86
2022/08/30 08:16:34;;;;;;;2.85;1.00;;;16.50;99.90;;;;;;6097976;23;20134;-86
2022/08/30 08:19:07;;;;;;;3.72;0.90;;;16.60;99.90;;;;;;6123845;23;20018;-86
2022/08/30 08:21:34;;;;;;;2.22;0.90;;;16.70;99.90;;;;;;6148480;23;20079;-86
2022/08/30 08:24:00;;;;;;;3.92;1.00;;;16.70;99.90;;;;;;6122466;23;20010;-86
2022/08/30 08:26:26;;;;;;;4.20;1.00;;;16.80;99.90;;;;;;6122277;23;20109;-85
2022/08/30 08:28:52;;;;;;;3.13;1.05;;;16.90;99.90;;;;;;6150015;23;20014;-85
2022/08/30 08:31:23;;;;;;;3.30;0.90;;;17.00;99.90;;;;;;6123622;23;20032;-86
2022/08/30 08:33:50;;;;;;;2.78;0.98;;;17.10;99.90;;;;;;6150243;23;20024;-85
2022/08/30 08:36:17;;;;;;;4.55;1.08;;;17.20;99.90;;;;;;6149686;23;20032;-86
2022/08/30 08:38:43;;;;;;;2.83;0.80;;;17.30;99.90;;;;;;6099664;23;20079;-85
2022/08/30 08:41:35;;;;;;;2.28;0.70;;;17.40;99.90;;;;;;6100056;23;20079;-85
2022/08/30 08:44:18;;;;;;;5.18;0.80;;;17.50;99.90;;;;;;6124752;23;20022;-85
2022/08/30 08:47:09;;;;;;;3.00;0.85;;;17.60;99.90;;;;;;6150565;23;20070;-85
2022/08/30 08:49:38;;;;;;;4.75;1.10;;;17.50;99.90;;;;;;6123991;23;20021;-86
2022/08/30 08:54:56;;;;;;;3.95;0.85;;;18.10;99.90;;;;;;6154573;23;20113;-86
2022/08/30 08:57:23;;;;;;;2.70;0.70;;;18.20;99.90;;;;;;6154767;23;20023;-86
2022/08/30 08:59:53;;;;;;;1.90;0.80;;;18.30;99.90;;;;;;6155691;23;20017;-87
2022/08/30 09:02:35;;;;;;;2.45;0.95;;;18.40;99.90;;;;;;6155975;23;20017;-86
2022/08/30 09:05:02;;;;;;;3.65;1.00;;;18.40;99.90;;;;;;6181025;23;20017;-86
2022/08/30 09:07:38;;;;;;;3.35;1.40;;;18.50;99.90;;;;;;6155246;23;20017;-85
2022/08/30 09:10:06;;;;;;;3.53;1.30;;;18.70;99.90;;;;;;6153999;23;20040;-85
2022/08/30 09:12:31;;;;;;;2.65;0.80;;;18.90;99.90;;;;;;6154903;23;20508;-85
2022/08/30 09:15:22;;;;;;;3.88;1.27;;;19.00;99.90;;;;;;6155220;23;20052;-85
2022/08/30 09:17:56;;;;;;;2.58;0.60;;;19.20;99.90;;;;;;6153927;22;20017;-86
2022/08/30 09:20:32;;;;;;;3.95;0.70;;;19.40;99.90;;;;;;6154380;23;20060;-85
2022/08/30 09:23:09;;;;;;;3.20;1.00;;;19.60;99.90;;;;;;6154828;23;20021;-85
2022/08/30 09:25:35;;;;;;;3.05;0.77;;;19.80;99.90;;;;;;6154181;23;20025;-85
2022/08/30 09:28:10;;;;;;;6.40;0.77;;;19.60;99.90;;;;;;6180515;23;20013;-85
2022/08/30 09:30:37;;;;;;;1.52;0.60;;;19.60;99.90;;;;;;6181308;23;20021;-84
2022/08/30 09:33:20;;;;;;;4.22;0.95;;;19.80;99.90;;;;;;6181717;23;20062;-88
2022/08/30 09:35:50;;;;;;;3.47;1.00;;;20.00;99.90;;;;;;6182302;23;20021;-86
2022/08/30 09:38:32;;;;;;;4.60;1.00;;;20.10;99.90;;;;;;6151687;23;20028;-88
2022/08/30 09:41:27;;;;;;;5.80;1.08;;;20.20;99.90;;;;;;6130122;23;20482;-88
2022/08/30 09:44:09;;;;;;;3.47;0.77;;;20.40;99.90;;;;;;6152638;23;20017;-90
2022/08/30 09:46:56;;;;;;;2.28;0.70;;;20.50;99.90;;;;;;6126364;23;20784;-91
2022/08/30 09:49:41;;;;;;;3.03;0.70;;;20.60;99.90;;;;;;6129169;23;20107;-89
2022/08/30 09:52:26;;;;;;;5.20;0.95;;;20.80;99.90;;;;;;6129075;23;20056;-89
2022/08/30 09:55:13;;;;;;;;;;;21.70;99.90;;;;;;6152228;23;20033;-89
2022/08/30 09:58:06;;;;;;;3.10;0.90;;;21.30;96.70;;;;;;6155538;22;20364;-91
2022/08/30 10:00:42;;;;;;;1.75;0.70;;;21.50;96.90;;;;;;6154413;23;20017;-88
2022/08/30 10:03:30;;;;;;;3.13;0.90;;;21.80;97.90;;;;;;6129340;23;20029;-90
2022/08/30 10:06:09;;;;;;;4.05;0.80;;;22.00;97.10;;;;;;6152426;23;20482;-90
2022/08/30 10:08:50;;;;;;;4.03;0.88;;;22.20;96.80;;;;;;6178497;23;20045;-90
2022/08/30 10:11:35;;;;;;;2.72;0.65;;;22.30;96.20;;;;;;6129749;23;20021;-91
2022/08/30 10:14:22;;;;;;;3.97;0.82;;;22.40;94.80;;;;;;6128238;23;20032;-87
2022/08/30 10:17:10;;;;;;;3.30;0.60;;;22.60;96.10;;;;;;6151005;23;20031;-87
2022/08/30 10:19:59;;;;;;;3.13;0.93;;;22.80;95.50;;;;;;6177154;23;20017;-87
2022/08/30 10:22:33;;;;;;;5.10;0.95;;;22.90;94.80;;;;;;6177325;23;20018;-87
2022/08/30 10:25:12;;;;;;;4.93;0.88;;;23.00;94.20;;;;;;6176962;23;20049;-88
2022/08/30 10:27:49;;;;;;;2.53;0.65;;;23.00;94.40;;;;;;6177471;23;20455;-87
2022/08/30 10:30:16;;;;;;;3.75;1.02;;;23.10;94.20;;;;;;6176341;23;20023;-88
2022/08/30 10:32:59;;;;;;;1.65;0.63;;;23.20;94.10;;;;;;6177450;23;20032;-88
2022/08/30 10:35:28;;;;;;;3.10;0.80;;;23.10;91.90;;;;;;6177260;23;20101;-87
2022/08/30 10:38:01;;;;;;;4.00;0.70;;;23.10;93.50;;;;;;6177241;23;20048;-87
2022/08/30 10:43:30;;;;;;;6.13;0.85;;;22.90;93.30;;;;;;6149324;22;20021;-88
2022/08/30 10:46:06;;;;;;;3.17;0.98;;;22.90;93.70;;;;;;6149102;23;20028;-88
2022/08/30 10:48:39;;;;;;;4.03;0.80;;;22.90;93.60;;;;;;6177246;23;20023;-89
2022/08/30 10:51:13;;;;;;;2.17;0.75;;;22.90;93.10;;;;;;6176767;23;20096;-88
2022/08/30 10:54:00;;;;;;;4.70;0.70;;;22.80;92.40;;;;;;6179301;23;20040;-90
2022/08/30 10:56:28;;;;;;;5.30;1.13;;;22.80;91.40;;;;;;6176156;23;20360;-86
2022/08/30 10:58:57;;;;;;;2.75;0.98;;;22.90;93.10;;;;;;6175687;23;20525;-87
2022/08/30 11:01:37;;;;;;;2.65;0.82;;;22.90;92.80;;;;;;6177942;23;20017;-88
2022/08/30 11:04:48;;;;;;;3.25;0.80;;;23.00;91.90;;;;;;6150773;23;20030;-88
2022/08/30 11:07:45;;;;;;;2.13;0.75;;;23.00;91.80;;;;;;6162775;23;20029;-88
2022/08/30 11:10:21;;;;;;;5.32;0.80;;;23.10;91.80;;;;;;6150575;23;20021;-88
2022/08/30 11:13:04;;;;;;;2.53;0.60;;;23.20;92.60;;;;;;6176952;23;20030;-87
2022/08/30 11:15:35;;;;;;;1.75;0.60;;;23.20;91.10;;;;;;6176295;23;20099;-87
2022/08/30 11:18:08;;;;;;;7.55;1.02;;;23.20;91.90;;;;;;6177386;23;20013;-87
2022/08/30 11:20:44;;;;;;;2.63;0.70;;;23.30;91.80;;;;;;6177167;23;20100;-87
2022/08/30 11:23:29;;;;;;;2.20;1.05;;;23.40;91.50;;;;;;6176181;23;20060;-87
2022/08/30 11:26:01;;;;;;;3.58;0.60;;;23.50;91.10;;;;;;6177218;23;20021;-87
2022/08/30 11:28:35;;;;;;;2.92;0.70;;;23.60;92.40;;;;;;6175765;23;20112;-87
2022/08/30 11:31:19;;;;;;;3.85;0.80;;;23.80;92.20;;;;;;6176856;23;20021;-87
2022/08/30 11:33:44;;;;;;;2.73;0.80;;;23.90;91.60;;;;;;6176548;23;20388;-87
2022/08/30 11:36:31;;;;;;;3.42;0.77;;;23.90;91.70;;;;;;6177031;23;20022;-87
2022/08/30 11:39:11;;;;;;;6.22;0.93;;;23.90;91.30;;;;;;6176324;23;20021;-88
2022/08/30 11:41:44;;;;;;;3.45;0.70;;;24.00;91.40;;;;;;6177252;23;20017;-87
2022/08/30 11:44:22;;;;;;;3.47;0.70;;;24.10;91.40;;;;;;6175743;23;20017;-86
2022/08/30 11:46:53;;;;;;;1.88;0.70;;;24.10;90.50;;;;;;6176700;23;20025;-87
2022/08/30 11:49:30;;;;;;;2.20;0.63;;;24.20;91.20;;;;;;6149310;23;20096;-87
2022/08/30 11:52:23;;;;;;;3.05;0.70;;;24.40;92.90;;;;;;6176385;23;20390;-87
2022/08/30 11:55:10;;;;;;;4.00;0.70;;;24.50;90.20;;;;;;6177042;22;20142;-85
2022/08/30 11:57:51;;;;;;;2.85;0.50;;;24.40;90.30;;;;;;6175989;22;20025;-87
2022/08/30 12:00:35;;;;;;;2.60;0.63;;;24.60;89.90;;;;;;6176892;23;20013;-87
2022/08/30 12:03:31;;;;;;;2.10;0.70;;;24.70;89.00;;;;;;6176590;23;20021;-87
2022/08/30 12:06:05;;;;;;;5.10;0.98;;;24.90;88.00;;;;;;6176343;23;20522;-87
2022/08/30 12:08:32;;;;;;;4.80;0.90;;;25.10;89.60;;;;;;6125255;23;20032;-87
2022/08/30 12:11:01;;;;;;;2.78;0.80;;;25.20;90.20;;;;;;6175743;23;20083;-83
2022/08/30 12:13:33;;;;;;;5.47;0.90;;;25.20;89.60;;;;;;6176179;23;20032;-88
2022/08/30 12:16:03;;;;;;;3.60;0.80;;;25.10;89.10;;;;;;6176830;23;20023;-89
2022/08/30 12:18:41;;;;;;;3.17;0.77;;;25.00;90.50;;;;;;6149801;23;20456;-88
2022/08/30 12:21:28;;;;;;;18.27;1.77;;;25.00;89.70;;;;;;6150698;23;20472;-90
2022/08/30 12:24:08;;;;;;;29.00;2.10;;;24.90;90.00;;;;;;6178052;23;20078;-90
2022/08/30 12:26:35;;;;;;;19.67;2.10;;;24.80;91.00;;;;;;6125758;23;20017;-90
2022/08/30 12:29:10;;;;;;;3.03;0.63;;;24.90;90.30;;;;;;6150690;23;20021;-90
2022/08/30 12:31:46;;;;;;;2.92;0.60;;;25.10;89.20;;;;;;6150837;23;20064;-91
2022/08/30 12:34:23;;;;;;;2.85;0.65;;;25.20;89.20;;;;;;6177718;23;20025;-89
2022/08/30 12:37:07;;;;;;;2.92;0.77;;;25.20;90.20;;;;;;6177299;23;20486;-89
2022/08/30 12:39:39;;;;;;;3.17;0.68;;;25.00;90.10;;;;;;6177870;22;20084;-89
2022/08/30 12:42:27;;;;;;;4.68;0.70;;;24.80;90.40;;;;;;6177095;22;20417;-90
2022/08/30 12:44:56;;;;;;;1.75;0.60;;;24.70;89.70;;;;;;6177566;23;20208;-90
2022/08/30 12:47:28;;;;;;;3.97;0.60;;;24.80;90.20;;;;;;6176632;23;20017;-89
2022/08/30 12:49:54;;;;;;;1.67;0.50;;;24.90;89.50;;;;;;6177330;23;20017;-89
2022/08/30 12:52:27;;;;;;;3.83;0.70;;;25.00;89.10;;;;;;6177071;23;20009;-89
2022/08/30 12:54:55;;;;;;;1.92;0.60;;;25.10;89.30;;;;;;6177007;23;20020;-89
2022/08/30 12:57:53;;;;;;;1.90;0.52;;;24.90;90.30;;;;;;6177247;23;20013;-89
2022/08/30 13:00:30;;;;;;;2.78;0.68;;;24.70;89.10;;;;;;6207256;23;20016;-89
2022/08/30 13:02:59;;;;;;;2.55;0.65;;;24.80;90.00;;;;;;6184211;23;20024;-89
2022/08/30 13:05:42;;;;;;;3.03;0.70;;;24.80;90.80;;;;;;6208848;23;20024;-89
2022/08/30 13:08:24;;;;;;;4.50;0.70;;;25.00;91.50;;;;;;6208597;23;20090;-89
2022/08/30 13:10:51;;;;;;;28.80;1.67;;;25.30;91.30;;;;;;6208774;23;20025;-89
2022/08/30 13:13:48;;;;;;;1.48;0.55;;;25.50;90.50;;;;;;6183501;23;20017;-89
2022/08/30 13:16:17;;;;;;;1.75;0.60;;;25.60;86.40;;;;;;6183003;23;20017;-89
2022/08/30 13:18:44;;;;;;;1.48;0.57;;;25.70;88.50;;;;;;6184251;23;20075;-89
2022/08/30 13:21:25;;;;;;;1.23;0.60;;;25.80;89.60;;;;;;6208587;23;20020;-89
2022/08/30 13:23:58;;;;;;;3.13;0.68;;;26.00;87.90;;;;;;6208612;23;20017;-89
2022/08/30 13:26:24;;;;;;;2.13;0.50;;;26.20;87.10;;;;;;6206382;23;20035;-89
2022/08/30 13:28:54;;;;;;;1.38;0.65;;;26.30;87.70;;;;;;6207710;23;20082;-92
2022/08/30 13:31:20;;;;;;;1.90;0.70;;;26.40;87.00;;;;;;6210383;23;20027;-89
2022/08/30 13:33:46;;;;;;;1.50;0.57;;;26.50;87.00;;;;;;6211264;23;20028;-89
2022/08/30 13:36:15;;;;;;;1.75;0.50;;;26.50;87.00;;;;;;6141029;23;20343;-87
2022/08/30 13:38:41;;;;;;;2.30;0.70;;;26.50;86.50;;;;;;6177322;23;20070;-85
2022/08/30 13:41:10;;;;;;;1.50;0.60;;;26.40;86.70;;;;;;6177793;23;20017;-89
2022/08/30 13:43:37;;;;;;;4.72;0.85;;;26.30;86.20;;;;;;6178575;23;20028;-89
2022/08/30 13:46:04;;;;;;;3.33;0.77;;;26.10;87.50;;;;;;6152387;23;20100;-88
2022/08/30 13:48:30;;;;;;;1.88;0.63;;;25.80;87.30;;;;;;6151733;23;20510;-89
2022/08/30 13:50:56;;;;;;;2.10;0.73;;;25.50;87.60;;;;;;6178632;23;20336;-88
2022/08/30 13:53:22;;;;;;;2.35;0.60;;;25.40;88.40;;;;;;6152173;23;20021;-89
2022/08/30 13:55:48;;;;;;;1.38;0.60;;;25.50;88.80;;;;;;6179147;23;20017;-88
2022/08/30 13:58:15;;;;;;;3.53;0.70;;;25.50;88.20;;;;;;6153418;23;20297;-89
2022/08/30 14:00:41;;;;;;;1.50;0.60;;;25.40;87.70;;;;;;6177541;22;20062;-88
2022/08/30 14:03:14;;;;;;;5.03;0.80;;;25.30;88.50;;;;;;6178545;23;20087;-87
2022/08/30 14:05:42;;;;;;;2.35;0.60;;;25.20;89.40;;;;;;6149982;23;20021;-88
2022/08/30 14:08:10;;;;;;;3.00;0.70;;;25.20;89.20;;;;;;6149561;23;20021;-88
2022/08/30 14:10:36;;;;;;;1.52;0.68;;;25.30;88.50;;;;;;6126977;23;20044;-87
2022/08/30 14:13:10;;;;;;;1.63;0.70;;;25.30;88.20;;;;;;6179317;22;20017;-87
2022/08/30 14:15:37;;;;;;;;;;;25.40;88.30;;;;;;6177930;23;20314;-88
2022/08/30 14:18:06;;;;;;;2.88;1.05;;;25.20;88.00;;;;;;6126833;23;20332;-87
2022/08/30 14:20:34;;;;;;;2.55;0.60;;;25.20;89.40;;;;;;6177815;23;20013;-87
2022/08/30 14:23:01;;;;;;;1.95;0.60;;;25.30;88.90;;;;;;6177211;23;20088;-87
2022/08/30 14:25:27;;;;;;;2.78;0.50;;;25.40;89.20;;;;;;6125833;23;20021;-87
2022/08/30 14:27:59;;;;;;;3.08;0.70;;;25.20;88.90;;;;;;6152038;23;20017;-88
2022/08/30 14:30:30;;;;;;;1.90;0.60;;;25.40;88.70;;;;;;6177688;23;20021;-87
2022/08/30 14:33:01;;;;;;;3.10;0.70;;;25.40;89.20;;;;;;6176136;23;20367;-87
2022/08/30 14:35:30;;;;;;;2.55;0.70;;;25.50;89.80;;;;;;6177406;23;20021;-87
2022/08/30 14:38:05;;;;;;;2.50;0.60;;;25.10;89.00;;;;;;6149705;23;20036;-86
2022/08/30 14:40:30;;;;;;;3.00;0.63;;;25.00;89.80;;;;;;6150633;23;20021;-87
2022/08/30 14:42:56;;;;;;;1.48;0.60;;;24.80;89.90;;;;;;6176811;23;20017;-87
2022/08/30 14:45:22;;;;;;;1.30;0.50;;;25.10;89.90;;;;;;6149831;23;20097;-87
2022/08/30 14:47:48;;;;;;;2.35;0.82;;;24.70;90.00;;;;;;6175873;23;20013;-87
2022/08/30 14:50:15;;;;;;;1.60;0.50;;;24.70;90.00;;;;;;6176895;23;20078;-87
2022/08/30 14:52:40;;;;;;;1.63;0.68;;;24.80;89.70;;;;;;6175307;23;20017;-88
2022/08/30 14:55:08;;;;;;;1.17;0.57;;;24.80;89.00;;;;;;6177166;23;20028;-88
2022/08/30 14:57:34;;;;;;;2.05;0.65;;;24.70;89.00;;;;;;6175231;23;20016;-88
2022/08/30 14:59:59;;;;;;;4.13;0.55;;;25.00;89.30;;;;;;6176882;23;20021;-87
2022/08/30 15:02:25;;;;;;;0.80;0.43;;;25.20;89.60;;;;;;6150713;23;20024;-89
2022/08/30 15:04:51;;;;;;;1.70;0.60;;;25.00;89.60;;;;;;6175943;23;20447;-86
2022/08/30 15:07:16;;;;;;;3.72;1.02;;;24.70;89.90;;;;;;6176345;23;20478;-89
2022/08/30 15:09:43;;;;;;;1.92;0.60;;;24.60;90.20;;;;;;6177319;23;20009;-89
2022/08/30 15:12:08;;;;;;;4.57;0.90;;;24.30;90.30;;;;;;6177129;23;20032;-88
2022/08/30 15:14:34;;;;;;;1.48;0.60;;;24.10;90.50;;;;;;6177197;23;20013;-89
2022/08/30 15:17:01;;;;;;;2.10;0.70;;;24.00;90.50;;;;;;6176516;23;20009;-89
2022/08/30 15:19:28;;;;;;;1.90;0.50;;;24.00;90.70;;;;;;6177102;23;20649;-88
2022/08/30 15:21:57;;;;;;;2.42;0.60;;;24.10;90.90;;;;;;6176444;23;20016;-87
2022/08/30 15:24:23;;;;;;;3.85;0.70;;;24.10;91.10;;;;;;6150259;23;20458;-87
2022/08/30 15:26:49;;;;;;;3.40;0.70;;;24.10;90.90;;;;;;6150580;23;20051;-87
2022/08/30 15:29:17;;;;;;;4.40;0.80;;;24.10;90.70;;;;;;6176791;23;20017;-87
2022/08/30 15:31:45;;;;;;;2.30;0.70;;;24.00;90.90;;;;;;6176859;23;20021;-87
2022/08/30 15:34:14;;;;;;;2.85;0.63;;;23.80;91.10;;;;;;6176385;23;20035;-87
2022/08/30 15:36:41;;;;;;;2.80;0.60;;;23.70;91.50;;;;;;6175450;23;20445;-87
2022/08/30 15:39:07;;;;;;;2.22;0.70;;;23.60;91.50;;;;;;6176784;23;20025;-87
2022/08/30 15:41:34;;;;;;;2.20;0.60;;;23.40;91.80;;;;;;6177226;23;20071;-87
2022/08/30 15:44:00;;;;;;;2.88;0.65;;;23.40;91.90;;;;;;6177005;23;20023;-87
2022/08/30 15:46:33;;;;;;;2.95;0.70;;;23.30;91.90;;;;;;6149262;23;20120;-87
2022/08/30 15:49:02;;;;;;;3.65;0.95;;;23.20;91.90;;;;;;6175918;23;20017;-86
2022/08/30 15:51:29;;;;;;;2.33;0.63;;;23.20;92.00;;;;;;6176748;23;20040;-86
2022/08/30 15:53:55;;;;;;;4.78;0.65;;;23.20;92.00;;;;;;6176476;23;20025;-87
2022/08/30 15:56:20;;;;;;;3.20;0.70;;;23.20;92.00;;;;;;6175161;23;20126;-87
2022/08/30 15:58:46;;;;;;;2.30;0.60;;;23.10;92.10;;;;;;6150433;23;20021;-86
2022/08/30 16:01:13;;;;;;;3.70;1.00;;;23.10;92.30;;;;;;6175908;23;20019;-85
2022/08/30 16:03:40;;;;;;;2.42;0.80;;;23.00;92.50;;;;;;6174567;23;20379;-86
2022/08/30 16:06:34;;;;;;;6.00;0.93;;;22.90;92.50;;;;;;6175285;23;20021;-86
2022/08/30 16:09:00;;;;;;;1.85;0.70;;;22.80;92.80;;;;;;6176733;23;20471;-86
2022/08/30 16:11:26;;;;;;;1.92;0.70;;;22.70;93.00;;;;;;6125163;23;20107;-86
2022/08/30 16:13:53;;;;;;;2.05;0.63;;;22.70;93.10;;;;;;6176833;23;20051;-86
2022/08/30 16:16:20;;;;;;;2.97;0.80;;;22.70;93.30;;;;;;6150366;23;20084;-86
2022/08/30 16:18:47;;;;;;;3.55;0.82;;;22.80;93.50;;;;;;6149687;23;20017;-86
2022/08/30 16:21:19;;;;;;;2.45;0.93;;;22.80;93.60;;;;;;6175591;23;20333;-86
2022/08/30 16:23:45;;;;;;;2.30;0.90;;;22.90;93.80;;;;;;6176915;23;20013;-86
2022/08/30 16:26:12;;;;;;;2.95;1.10;;;22.90;93.80;;;;;;6176733;23;20025;-86
2022/08/30 16:28:39;;;;;;;3.03;1.02;;;22.80;93.80;;;;;;6176541;23;20017;-88
2022/08/30 16:31:05;;;;;;;3.85;1.08;;;22.70;94.10;;;;;;6175867;23;20502;-87
2022/08/30 16:33:31;;;;;;;4.03;1.30;;;22.60;94.20;;;;;;6174027;23;20025;-88
2022/08/30 16:35:57;;;;;;;5.10;1.20;;;22.50;94.50;;;;;;6175811;23;20340;-86
2022/08/30 16:38:24;;;;;;;2.30;0.93;;;22.40;94.80;;;;;;6149783;23;20021;-87
2022/08/30 16:40:50;;;;;;;3.58;1.42;;;22.10;95.10;;;;;;6175143;23;20024;-86
2022/08/30 16:43:16;;;;;;;4.05;1.00;;;22.10;95.60;;;;;;6148417;23;20074;-86
2022/08/30 16:45:43;;;;;;;3.83;1.10;;;22.00;95.50;;;;;;6147525;23;20025;-87
2022/08/30 16:48:09;;;;;;;4.20;0.90;;;21.90;95.60;;;;;;6149171;22;20017;-86
2022/08/30 16:50:40;;;;;;;4.95;1.13;;;21.90;95.80;;;;;;6175483;23;20494;-86
2022/08/30 16:53:06;;;;;;;2.72;1.00;;;21.90;96.10;;;;;;6174428;23;20104;-87
2022/08/30 16:55:34;;;;;;;3.00;1.00;;;21.80;96.20;;;;;;6174790;23;20045;-87
2022/08/30 16:58:01;;;;;;;3.30;0.90;;;21.70;96.20;;;;;;6174188;23;20013;-87
2022/08/30 17:00:27;;;;;;;2.47;0.77;;;21.70;96.60;;;;;;6175041;23;20025;-87
2022/08/30 17:02:53;;;;;;;8.38;0.90;;;21.70;96.80;;;;;;6147874;23;20021;-87
2022/08/30 17:05:20;;;;;;;3.42;0.95;;;21.60;96.90;;;;;;6148275;23;20437;-87
2022/08/30 17:07:46;;;;;;;3.22;1.00;;;21.60;97.10;;;;;;6176084;23;20063;-87
2022/08/30 17:10:11;;;;;;;3.53;0.93;;;21.50;97.00;;;;;;6177190;23;20009;-87
2022/08/30 17:12:37;;;;;;;3.30;0.93;;;21.50;96.80;;;;;;6176865;23;20032;-87
2022/08/30 17:15:03;;;;;;;5.45;0.80;;;21.40;96.70;;;;;;6176720;23;20041;-87
2022/08/30 17:17:29;;;;;;;2.67;0.75;;;21.40;96.80;;;;;;6149514;23;20348;-87
2022/08/30 17:19:55;;;;;;;4.15;0.90;;;21.30;96.80;;;;;;6176621;23;20013;-87
2022/08/30 17:22:23;;;;;;;3.58;0.73;;;21.30;96.90;;;;;;6150314;23;20134;-87
2022/08/30 17:24:51;;;;;;;4.10;1.20;;;21.20;97.00;;;;;;6149544;22;20039;-88
2022/08/30 17:27:17;;;;;;;5.22;0.90;;;21.10;97.00;;;;;;6177250;23;20014;-87
2022/08/30 17:29:42;;;;;;;3.90;1.00;;;21.00;97.00;;;;;;6176053;23;20039;-87
2022/08/30 17:32:08;;;;;;;4.30;0.70;;;20.90;97.00;;;;;;6175750;23;20092;-88
2022/08/30 17:34:34;;;;;;;5.18;0.90;;;20.80;97.20;;;;;;6149209;23;20057;-87
2022/08/30 17:36:59;;;;;;;3.22;0.80;;;20.80;97.40;;;;;;6176138;23;20314;-86
2022/08/30 17:39:26;;;;;;;5.55;1.00;;;20.70;97.30;;;;;;6176295;23;20483;-87
2022/08/30 17:41:52;;;;;;;2.35;0.80;;;20.70;97.40;;;;;;6150189;22;20052;-86
2022/08/30 17:44:19;;;;;;;4.72;0.90;;;20.50;97.50;;;;;;6149971;23;20125;-86
2022/08/30 17:46:44;;;;;;;5.00;0.90;;;20.60;97.50;;;;;;6149400;23;20021;-85
2022/08/30 17:49:10;;;;;;;3.03;0.75;;;20.50;97.50;;;;;;6149831;23;20096;-87
2022/08/30 17:51:39;;;;;;;4.38;0.80;;;20.80;97.60;;;;;;6175141;23;20389;-86
2022/08/30 17:54:05;;;;;;;3.95;0.77;;;20.40;97.50;;;;;;6149675;23;20066;-86
2022/08/30 17:56:31;;;;;;;2.63;0.73;;;20.40;97.50;;;;;;6149771;23;20013;-86
2022/08/30 17:58:56;;;;;;;2.38;0.73;;;20.40;97.40;;;;;;6176738;23;20333;-86
2022/08/30 18:01:22;;;;;;;4.53;0.80;;;20.30;97.40;;;;;;6148401;23;20017;-87
2022/08/30 18:03:51;;;;;;;2.60;0.80;;;20.30;97.50;;;;;;6175771;23;20100;-86
2022/08/30 18:06:16;;;;;;;2.17;0.80;;;20.20;97.40;;;;;;6149347;23;20028;-86
2022/08/30 18:08:42;;;;;;;6.75;0.80;;;20.20;97.60;;;;;;6150028;23;20021;-85
2022/08/30 18:11:07;;;;;;;2.42;0.80;;;20.10;97.50;;;;;;6176657;23;20078;-85
2022/08/30 18:13:33;;;;;;;4.65;1.17;;;20.00;97.40;;;;;;6149772;23;20013;-86
2022/08/30 18:16:01;;;;;;;5.78;1.10;;;20.00;97.60;;;;;;6148751;23;20021;-86
2022/08/30 18:18:26;;;;;;;4.20;0.95;;;19.90;97.70;;;;;;6148724;23;20469;-87
2022/08/30 18:20:52;;;;;;;2.40;0.80;;;19.90;97.70;;;;;;6148615;23;20095;-87
2022/08/30 18:23:18;;;;;;;6.60;0.88;;;19.80;97.70;;;;;;6177135;23;20017;-87
2022/08/30 18:25:55;;;;;;;2.03;0.70;;;19.80;98.00;;;;;;6176664;23;20021;-85
2022/08/30 18:28:21;;;;;;;2.50;0.93;;;19.70;98.40;;;;;;6150575;23;20020;-86
2022/08/30 18:30:46;;;;;;;4.47;0.73;;;19.70;98.10;;;;;;6176278;23;20025;-86
2022/08/30 18:33:12;;;;;;;3.17;0.60;;;19.60;98.30;;;;;;6149794;23;20341;-86
2022/08/30 18:35:40;;;;;;;4.03;0.77;;;19.70;98.40;;;;;;6175285;23;20040;-86
2022/08/30 18:38:06;;;;;;;3.10;0.90;;;19.50;98.20;;;;;;6175914;23;20028;-86
2022/08/30 18:40:32;;;;;;;3.25;0.90;;;19.50;98.40;;;;;;6148869;23;20021;-86